Time;durP1;ratioP1;P1;durP2;ratioP2;P2;SDS_P1;SDS_P2;PMS_P1;PMS_P2;Temp;Humidity;BMP_temperature;BMP_pressure;BME280_temperature;BME280_humidity;BME280_pressure;Samples;Min_cycle;Max_cycle;Signal;HPM_P1;HPM_P2
2023/03/02 00:00:57;;;;;;;;;;;;;;;2.47;61.43;100147.34;1090947;39;20555;-80
2023/03/02 00:03:22;;;;;;;;;;;;;;;2.48;61.29;100157.84;1086706;54;19943;-79
2023/03/02 00:04:27;;;;;;;;;;;;;;;2.53;61.16;100151.44;1086301;54;20478;-80
2023/03/02 00:05:32;;;;;;;;;;;;;;;2.51;61.15;100154.16;1086949;47;19946;-80
2023/03/02 00:06:34;;;;;;;;;;;;;;;2.50;61.38;100152.47;1086834;54;19942;-80
2023/03/02 00:07:39;;;;;;;;;;;;;;;2.53;61.27;100159.34;1086732;54;19965;-80
2023/03/02 00:08:41;;;;;;;;;;;;;;;2.50;61.15;100163.03;1086817;54;19942;-79
2023/03/02 00:09:47;;;;;;;;;;;;;;;2.49;61.49;100154.25;1087173;54;19943;-80
2023/03/02 00:10:48;;;;;;;;;;;;;;;2.48;61.51;100149.94;1087224;54;20264;-80
2023/03/02 00:11:52;;;;;;;;;;;;;;;2.50;61.27;100155.09;1087103;54;19949;-80
2023/03/02 00:12:53;;;;;;;;;;;;;;;2.46;61.41;100154.44;1087205;54;19942;-79
2023/03/02 00:13:57;;;;;;;;;;;;;;;2.43;61.46;100159.03;1087037;54;19942;-80
2023/03/02 00:14:58;;;;;;;;;;;;;;;2.46;61.31;100158.84;1087174;54;20435;-80
2023/03/02 00:16:02;;;;;;;;;;;;;;;2.43;61.51;100156.41;1087509;47;19946;-80
2023/03/02 00:17:04;;;;;;;;;;;;;;;2.42;61.74;100160.81;1087147;54;19949;-80
2023/03/02 00:18:08;;;;;;;;;;;;;;;2.40;61.75;100151.31;1087133;54;19942;-80
2023/03/02 00:19:09;;;;;;;;;;;;;;;2.42;61.59;100152.06;1087162;54;19942;-80
2023/03/02 00:20:15;;;;;;;;;;;;;;;2.39;61.71;100149.59;1087159;54;20243;-80
2023/03/02 00:21:16;;;;;;;;;;;;;;;2.41;61.72;100151.19;1087268;54;19973;-80
2023/03/02 00:22:20;;;;;;;;;;;;;;;2.39;61.54;100149.59;1087148;54;19942;-80
2023/03/02 00:23:22;;;;;;;;;;;;;;;2.36;61.84;100148.00;1087151;54;19949;-80
2023/03/02 00:24:26;;;;;;;;;;;;;;;2.41;61.70;100153.84;1087080;54;19942;-79
2023/03/02 00:25:30;;;;;;;;;;;;;;;2.44;61.68;100156.31;1087192;54;19954;-79
2023/03/02 00:26:34;;;;;;;;;;;;;;;2.39;61.54;100150.47;1089550;39;20122;-80
2023/03/02 00:27:35;;;;;;;;;;;;;;;2.36;61.63;100147.16;1087144;54;19943;-80
2023/03/02 00:28:39;;;;;;;;;;;;;;;2.32;61.85;100155.25;1087543;47;19960;-80
2023/03/02 00:29:41;;;;;;;;;;;;;;;2.35;61.70;100148.94;1087293;54;19950;-80
2023/03/02 00:30:45;;;;;;;;;;;;;;;2.33;61.71;100151.66;1087241;54;19949;-79
2023/03/02 00:31:46;;;;;;;;;;;;;;;2.33;61.90;100146.38;1087693;47;19943;-79
2023/03/02 00:32:49;;;;;;;;;;;;;;;2.34;61.88;100155.13;1087048;54;19942;-80
2023/03/02 00:33:53;;;;;;;;;;;;;;;2.33;61.78;100146.38;1087184;54;19939;-80
2023/03/02 00:34:57;;;;;;;;;;;;;;;2.31;61.87;100148.25;1089060;39;20199;-80
2023/03/02 00:35:58;;;;;;;;;;;;;;;2.36;61.94;100152.44;1087566;47;19961;-80
2023/03/02 00:37:02;;;;;;;;;;;;;;;2.30;62.17;100157.13;1087130;54;19954;-80
2023/03/02 00:38:03;;;;;;;;;;;;;;;2.31;62.14;100152.69;1087236;54;19942;-79
2023/03/02 00:39:07;;;;;;;;;;;;;;;2.24;62.15;100151.34;1087186;54;19942;-80
2023/03/02 00:40:08;;;;;;;;;;;;;;;2.22;62.25;100151.44;1087193;54;19948;-79
2023/03/02 00:41:17;;;;;;;;;;;;;;;2.21;62.35;100151.53;1087185;54;19942;-80
2023/03/02 00:42:18;;;;;;;;;;;;;;;2.21;62.37;100149.72;1087724;47;20598;-80
2023/03/02 00:43:26;;;;;;;;;;;;;;;2.19;62.08;100151.59;1087094;54;19947;-79
2023/03/02 00:44:27;;;;;;;;;;;;;;;2.23;62.12;100153.13;1087138;54;19942;-79
2023/03/02 00:45:31;;;;;;;;;;;;;;;2.16;62.53;100151.81;1087079;54;19942;-80
2023/03/02 00:46:32;;;;;;;;;;;;;;;2.10;62.66;100149.50;1087133;54;19943;-80
2023/03/02 00:47:37;;;;;;;;;;;;;;;2.09;62.60;100143.38;1087185;54;20839;-79
2023/03/02 00:48:38;;;;;;;;;;;;;;;2.07;62.68;100145.25;1087108;54;19950;-79
2023/03/02 00:49:47;;;;;;;;;;;;;;;2.01;63.03;100143.81;1087133;39;20563;-79
2023/03/02 00:50:49;;;;;;;;;;;;;;;1.95;63.09;100144.16;1087110;54;19949;-80
2023/03/02 00:51:54;;;;;;;;;;;;;;;2.00;63.02;100142.09;1087095;54;19942;-81
2023/03/02 00:52:55;;;;;;;;;;;;;;;1.95;63.19;100146.81;1087858;39;20239;-79
2023/03/02 00:54:01;;;;;;;;;;;;;;;1.93;63.33;100142.56;1087117;54;19943;-79
2023/03/02 00:55:03;;;;;;;;;;;;;;;1.95;63.31;100140.66;1087010;54;19946;-79
2023/03/02 00:56:08;;;;;;;;;;;;;;;1.94;63.17;100141.59;1087128;54;19943;-79
2023/03/02 00:57:12;;;;;;;;;;;;;;;1.89;63.56;100130.47;1087174;54;19950;-80
2023/03/02 00:58:16;;;;;;;;;;;;;;;1.87;63.64;100138.50;1087132;54;19999;-79
2023/03/02 00:59:25;;;;;;;;;;;;;;;1.83;63.39;100135.19;1087152;54;19943;-80
2023/03/02 01:00:30;;;;;;;;;;;;;;;1.80;63.89;100137.09;1087239;54;19950;-80
2023/03/02 01:01:31;;;;;;;;;;;;;;;1.80;63.54;100137.97;1087373;54;19973;-81
2023/03/02 01:02:37;;;;;;;;;;;;;;;1.77;63.81;100134.66;1087304;54;19991;-81
2023/03/02 01:03:38;;;;;;;;;;;;;;;1.79;63.93;100135.44;1087374;54;19973;-81
2023/03/02 01:04:45;;;;;;;;;;;;;;;1.75;63.95;100131.25;1087219;54;20215;-80
2023/03/02 01:05:46;;;;;;;;;;;;;;;1.75;63.86;100139.16;1087439;54;19943;-81
2023/03/02 01:06:50;;;;;;;;;;;;;;;1.77;63.89;100132.88;1087395;54;19942;-81
2023/03/02 01:07:51;;;;;;;;;;;;;;;1.77;63.88;100132.88;1087350;54;19943;-82
2023/03/02 01:08:55;;;;;;;;;;;;;;;1.79;63.75;100130.16;1087986;47;20135;-81
2023/03/02 01:09:56;;;;;;;;;;;;;;;1.75;63.99;100123.34;1087400;54;19943;-81
2023/03/02 01:11:02;;;;;;;;;;;;;;;1.71;64.15;100118.25;1087399;54;19943;-82
2023/03/02 01:12:04;;;;;;;;;;;;;;;1.71;63.87;100120.03;1087497;54;19973;-80
2023/03/02 01:13:11;;;;;;;;;;;;;;;1.71;63.86;100128.78;1087736;54;19942;-80
2023/03/02 01:14:13;;;;;;;;;;;;;;;1.69;64.17;100120.13;1087545;54;19998;-80
2023/03/02 01:15:17;;;;;;;;;;;;;;;1.70;64.01;100121.81;1088240;46;19939;-80
2023/03/02 01:16:18;;;;;;;;;;;;;;;1.69;63.95;100121.91;1087654;54;19950;-81
2023/03/02 01:17:24;;;;;;;;;;;;;;;1.65;64.09;100112.50;1087701;54;19964;-80
2023/03/02 01:18:25;;;;;;;;;;;;;;;1.65;64.22;100120.41;1087659;54;19942;-81
2023/03/02 01:19:29;;;;;;;;;;;;;;;1.61;64.34;100122.31;1087659;54;19977;-80
2023/03/02 01:20:30;;;;;;;;;;;;;;;1.64;64.03;100103.72;1087629;54;19943;-81
2023/03/02 01:21:34;;;;;;;;;;;;;;;1.68;63.84;100115.78;1087765;54;19950;-80
2023/03/02 01:22:35;;;;;;;;;;;;;;;1.70;63.96;100102.53;1087768;54;19943;-80
2023/03/02 01:23:39;;;;;;;;;;;;;;;1.68;64.00;100101.75;1087597;54;19994;-80
2023/03/02 01:24:40;;;;;;;;;;;;;;;1.68;64.06;100107.88;1087732;54;19942;-80
2023/03/02 01:25:44;;;;;;;;;;;;;;;1.69;63.83;100109.59;1087644;54;19942;-81
2023/03/02 01:26:45;;;;;;;;;;;;;;;1.63;64.18;100111.72;1087612;54;19965;-81
2023/03/02 01:27:49;;;;;;;;;;;;;;;1.62;64.12;100105.56;1088478;46;20002;-81
2023/03/02 01:28:54;;;;;;;;;;;;;;;1.68;63.84;100107.88;1088135;46;19938;-82
2023/03/02 01:29:58;;;;;;;;;;;;;;;1.73;63.81;100104.13;1087716;54;19951;-81
2023/03/02 01:31:01;;;;;;;;;;;;;;;1.75;63.64;100110.16;1087709;54;20011;-81
2023/03/02 01:32:05;;;;;;;;;;;;;;;1.77;63.47;100103.88;1087765;54;19950;-82
2023/03/02 01:33:08;;;;;;;;;;;;;;;1.81;63.43;100101.91;1088851;46;19972;-80
2023/03/02 01:34:13;;;;;;;;;;;;;;;1.76;63.54;100094.25;1087673;54;19943;-80
2023/03/02 01:35:14;;;;;;;;;;;;;;;1.77;63.61;100103.88;1088468;39;20660;-80
2023/03/02 01:36:19;;;;;;;;;;;;;;;1.77;63.15;100100.41;1087698;54;19938;-81
2023/03/02 01:37:21;;;;;;;;;;;;;;;1.82;63.20;100098.34;1087681;54;19950;-82
2023/03/02 01:38:25;;;;;;;;;;;;;;;1.89;62.96;100102.31;1088666;46;19989;-82
2023/03/02 01:39:27;;;;;;;;;;;;;;;1.90;62.88;100096.09;1087795;54;19972;-81
2023/03/02 01:40:31;;;;;;;;;;;;;;;1.86;62.92;100097.25;1088687;46;19955;-83
2023/03/02 01:41:32;;;;;;;;;;;;;;;1.87;62.97;100099.78;1087805;54;19973;-80
2023/03/02 01:42:39;;;;;;;;;;;;;;;1.89;63.02;100099.69;1088012;54;19946;-83
2023/03/02 01:43:40;;;;;;;;;;;;;;;1.94;62.69;100092.38;1087841;54;19938;-82
2023/03/02 01:44:49;;;;;;;;;;;;;;;1.96;62.66;100100.19;1087794;54;19942;-81
2023/03/02 01:45:52;;;;;;;;;;;;;;;1.98;62.63;100098.31;1087658;54;19950;-81
2023/03/02 01:46:56;;;;;;;;;;;;;;;2.00;62.43;100099.06;1087705;54;19954;-82
2023/03/02 01:47:58;;;;;;;;;;;;;;;2.00;62.39;100092.00;1087796;54;19943;-81
2023/03/02 01:49:04;;;;;;;;;;;;;;;2.02;62.46;100095.41;1087627;54;20050;-80
2023/03/02 01:50:11;;;;;;;;;;;;;;;2.00;62.51;100092.00;1087729;54;19943;-82
2023/03/02 01:51:17;;;;;;;;;;;;;;;1.98;62.62;100088.63;1087574;54;19943;-81
2023/03/02 01:52:19;;;;;;;;;;;;;;;1.95;62.47;100088.78;1087776;54;19998;-81
2023/03/02 01:53:24;;;;;;;;;;;;;;;1.92;62.64;100088.97;1087808;54;19965;-81
2023/03/02 01:54:26;;;;;;;;;;;;;;;1.93;62.81;100085.38;1087645;54;20622;-81
2023/03/02 01:55:33;;;;;;;;;;;;;;;1.95;62.83;100086.16;1087840;54;19950;-81
2023/03/02 01:56:36;;;;;;;;;;;;;;;1.91;62.76;100081.97;1087640;54;19943;-81
2023/03/02 01:57:45;;;;;;;;;;;;;;;1.90;62.90;100085.56;1087733;54;19946;-81
2023/03/02 01:58:48;;;;;;;;;;;;;;;1.92;62.77;100078.41;1087805;54;19972;-81
2023/03/02 01:59:56;;;;;;;;;;;;;;;1.90;62.74;100084.72;1087750;47;19949;-82
2023/03/02 02:00:57;;;;;;;;;;;;;;;1.85;62.89;100082.34;1087777;54;19943;-81
2023/03/02 02:02:04;;;;;;;;;;;;;;;1.86;62.80;100078.78;1087718;54;19943;-81
2023/03/02 02:03:08;;;;;;;;;;;;;;;1.86;62.94;100078.78;1091244;39;20209;-82
2023/03/02 02:04:13;;;;;;;;;;;;;;;1.85;62.95;100082.34;1087740;54;20033;-82
2023/03/02 02:05:17;;;;;;;;;;;;;;;1.85;63.04;100077.91;1087266;54;19946;-82
2023/03/02 02:06:24;;;;;;;;;;;;;;;1.85;63.11;100072.63;1087804;54;19950;-82
2023/03/02 02:07:26;;;;;;;;;;;;;;;1.83;63.02;100077.19;1089025;46;19943;-82
2023/03/02 02:08:30;;;;;;;;;;;;;;;1.82;62.96;100077.25;1088737;46;19950;-82
2023/03/02 02:09:33;;;;;;;;;;;;;;;1.81;63.01;100071.13;1087804;54;19943;-82
2023/03/02 02:10:38;;;;;;;;;;;;;;;1.79;63.15;100074.81;1087564;54;20566;-82
2023/03/02 02:11:41;;;;;;;;;;;;;;;1.75;63.22;100074.09;1087797;54;19990;-81
2023/03/02 02:12:45;;;;;;;;;;;;;;;1.73;63.38;100076.00;1088868;46;19942;-81
2023/03/02 02:13:47;;;;;;;;;;;;;;;1.69;63.61;100064.78;1088610;46;20664;-82
2023/03/02 02:14:52;;;;;;;;;;;;;;;1.73;63.51;100069.88;1087816;54;19950;-82
2023/03/02 02:15:56;;;;;;;;;;;;;;;1.77;63.10;100074.03;1087828;54;19935;-81
2023/03/02 02:17:01;;;;;;;;;;;;;;;1.75;63.17;100068.84;1087736;54;20051;-81
2023/03/02 02:18:02;;;;;;;;;;;;;;;1.76;63.34;100067.06;1087871;54;19943;-82
2023/03/02 02:19:09;;;;;;;;;;;;;;;1.75;63.22;100065.34;1087905;54;19943;-81
2023/03/02 02:20:19;;;;;;;;;;;;;;;1.71;63.36;100062.88;1087777;54;19946;-81
2023/03/02 02:21:23;;;;;;;;;;;;;;;1.69;63.34;100066.56;1087788;54;20894;-81
2023/03/02 02:22:32;;;;;;;;;;;;;;;1.64;63.64;100063.34;1087781;54;20006;-82
2023/03/02 02:23:41;;;;;;;;;;;;;;;1.56;63.76;100053.22;1088474;46;19942;-82
2023/03/02 02:24:45;;;;;;;;;;;;;;;1.59;63.94;100055.69;1087868;54;20294;-81
2023/03/02 02:26:09;;;;;;;;;;;;;;;1.51;63.95;100056.13;1087808;54;19955;-81
2023/03/02 02:27:13;;;;;;;;;;;;;;;1.48;64.01;100055.44;1087408;54;19965;-81
2023/03/02 02:28:20;;;;;;;;;;;;;;;1.48;64.19;100052.81;1087537;54;19927;-83
2023/03/02 02:29:24;;;;;;;;;;;;;;;1.43;64.05;100042.53;1087819;46;20821;-82
2023/03/02 02:30:29;;;;;;;;;;;;;;;1.43;64.39;100049.56;1087542;46;19950;-81
2023/03/02 02:31:34;;;;;;;;;;;;;;;1.47;64.21;100045.84;1087349;54;20003;-81
2023/03/02 02:32:40;;;;;;;;;;;;;;;1.45;64.25;100043.31;1087318;39;20214;-81
2023/03/02 02:33:44;;;;;;;;;;;;;;;1.44;64.22;100046.00;1087287;54;20002;-81
2023/03/02 02:34:50;;;;;;;;;;;;;;;1.44;64.37;100048.63;1087420;54;19942;-81
2023/03/02 02:35:53;;;;;;;;;;;;;;;1.37;64.35;100045.53;1086944;54;20697;-80
2023/03/02 02:37:00;;;;;;;;;;;;;;;1.43;64.22;100044.31;1086769;54;19950;-79
2023/03/02 02:38:04;;;;;;;;;;;;;;;1.43;64.28;100054.84;1087229;54;20638;-81
2023/03/02 02:39:10;;;;;;;;;;;;;;;1.42;64.30;100045.28;1087506;54;20721;-82
2023/03/02 02:40:14;;;;;;;;;;;;;;;1.44;64.33;100051.28;1087460;54;19966;-82
2023/03/02 02:41:21;;;;;;;;;;;;;;;1.39;64.40;100043.63;1087362;54;19951;-83
2023/03/02 02:42:27;;;;;;;;;;;;;;;1.39;64.41;100049.75;1087313;54;19970;-81
2023/03/02 02:43:32;;;;;;;;;;;;;;;1.39;64.39;100052.41;1087577;54;19966;-81
2023/03/02 02:44:34;;;;;;;;;;;;;;;1.38;64.37;100050.69;1087508;54;19935;-81
2023/03/02 02:45:38;;;;;;;;;;;;;;;1.38;64.10;100042.78;1087363;54;20018;-82
2023/03/02 02:46:39;;;;;;;;;;;;;;;1.36;64.37;100044.66;1087583;54;19943;-81
2023/03/02 02:47:43;;;;;;;;;;;;;;;1.36;64.51;100044.66;1088646;39;20881;-81
2023/03/02 02:48:45;;;;;;;;;;;;;;;1.40;64.22;100046.19;1087426;54;19973;-81
2023/03/02 02:49:50;;;;;;;;;;;;;;;1.44;64.23;100049.50;1087353;54;19949;-81
2023/03/02 02:50:58;;;;;;;;;;;;;;;1.38;64.28;100048.06;1087338;54;19943;-81
2023/03/02 02:52:03;;;;;;;;;;;;;;;1.37;64.28;100056.06;1087294;54;19943;-82
2023/03/02 02:53:09;;;;;;;;;;;;;;;1.39;64.39;100054.16;1087427;54;19954;-83
2023/03/02 02:54:16;;;;;;;;;;;;;;;1.38;64.37;100052.47;1087213;54;20072;-82
2023/03/02 02:55:20;;;;;;;;;;;;;;;1.35;64.42;100050.84;1087310;54;19966;-82
2023/03/02 02:56:24;;;;;;;;;;;;;;;1.36;64.26;100049.09;1087221;54;19951;-81
2023/03/02 02:57:29;;;;;;;;;;;;;;;1.38;64.42;100045.44;1087361;54;19942;-81
2023/03/02 02:58:36;;;;;;;;;;;;;;;1.35;64.33;100047.38;1087225;54;19973;-81
2023/03/02 02:59:42;;;;;;;;;;;;;;;1.34;64.42;100050.94;1087496;54;20016;-82
2023/03/02 03:00:46;;;;;;;;;;;;;;;1.32;64.40;100058.94;1087223;54;20673;-81
2023/03/02 03:01:47;;;;;;;;;;;;;;;1.34;64.38;100048.31;1087249;54;19966;-82
2023/03/02 03:02:55;;;;;;;;;;;;;;;1.32;64.53;100047.56;1087607;46;19969;-82
2023/03/02 03:03:57;;;;;;;;;;;;;;;1.30;64.55;100054.69;1087060;54;19965;-81
2023/03/02 03:05:04;;;;;;;;;;;;;;;1.31;64.52;100051.97;1088086;39;20538;-82
2023/03/02 03:06:06;;;;;;;;;;;;;;;1.28;64.84;100046.00;1087374;39;20680;-82
2023/03/02 03:07:12;;;;;;;;;;;;;;;1.30;64.70;100045.00;1088306;46;19943;-81
2023/03/02 03:08:29;;;;;;;;;;;;;;;1.31;64.41;100041.44;1087658;54;19949;-81
2023/03/02 03:09:33;;;;;;;;;;;;;;;1.27;64.49;100045.16;1087605;54;19946;-84
2023/03/02 03:10:38;;;;;;;;;;;;;;;1.27;64.71;100044.34;1087578;54;19938;-81
2023/03/02 03:11:44;;;;;;;;;;;;;;;1.27;64.78;100044.34;1091018;39;20430;-82
2023/03/02 03:12:49;;;;;;;;;;;;;;;1.30;64.72;100037.09;1087755;54;20446;-81
2023/03/02 03:13:55;;;;;;;;;;;;;;;1.29;64.73;100035.41;1088544;39;20495;-81
2023/03/02 03:14:58;;;;;;;;;;;;;;;1.30;64.60;100042.38;1087582;54;19943;-81
2023/03/02 03:16:03;;;;;;;;;;;;;;;1.27;64.74;100041.69;1087501;54;19954;-82
2023/03/02 03:17:11;;;;;;;;;;;;;;;1.21;64.92;100040.25;1088556;39;20482;-82
2023/03/02 03:18:15;;;;;;;;;;;;;;;1.20;64.89;100033.28;1087569;54;19931;-80
2023/03/02 03:19:19;;;;;;;;;;;;;;;1.19;64.94;100031.59;1087880;46;20651;-81
2023/03/02 03:20:23;;;;;;;;;;;;;;;1.14;65.34;100028.34;1087557;54;19942;-81
2023/03/02 03:21:25;;;;;;;;;;;;;;;1.15;65.21;100030.03;1087444;54;19946;-81
2023/03/02 03:22:29;;;;;;;;;;;;;;;1.14;65.10;100030.97;1087693;54;19954;-81
2023/03/02 03:23:30;;;;;;;;;;;;;;;1.15;65.28;100030.03;1087662;54;19957;-81
2023/03/02 03:24:35;;;;;;;;;;;;;;;1.08;65.19;100030.38;1087608;54;19951;-81
2023/03/02 03:25:37;;;;;;;;;;;;;;;1.07;65.18;100028.69;1090429;39;20620;-81
2023/03/02 03:26:41;;;;;;;;;;;;;;;1.04;65.53;100030.66;1087614;54;20669;-82
2023/03/02 03:27:42;;;;;;;;;;;;;;;1.04;65.35;100028.84;1087741;54;19947;-81
2023/03/02 03:28:49;;;;;;;;;;;;;;;1.07;65.19;100033.13;1088266;39;20077;-80
2023/03/02 03:29:50;;;;;;;;;;;;;;;1.06;65.20;100039.31;1087428;54;19954;-83
2023/03/02 03:30:55;;;;;;;;;;;;;;;1.08;65.43;100032.19;1087441;54;20022;-81
2023/03/02 03:31:57;;;;;;;;;;;;;;;1.07;65.47;100033.13;1087485;54;19942;-82
2023/03/02 03:33:01;;;;;;;;;;;;;;;1.11;65.35;100033.78;1090387;39;20663;-81
2023/03/02 03:34:03;;;;;;;;;;;;;;;1.11;65.08;100031.16;1087411;54;20883;-79
2023/03/02 03:35:10;;;;;;;;;;;;;;;1.12;65.42;100027.59;1087463;54;19949;-81
2023/03/02 03:36:11;;;;;;;;;;;;;;;1.13;65.07;100039.84;1087512;54;19949;-82
2023/03/02 03:37:16;;;;;;;;;;;;;;;1.14;65.09;100041.50;1087557;54;19945;-82
2023/03/02 03:38:18;;;;;;;;;;;;;;;1.16;65.27;100042.28;1087588;54;19943;-81
2023/03/02 03:39:22;;;;;;;;;;;;;;;1.17;64.90;100043.97;1087403;54;19949;-81
2023/03/02 03:40:23;;;;;;;;;;;;;;;1.11;65.23;100039.91;1087541;54;19939;-81
2023/03/02 03:41:27;;;;;;;;;;;;;;;1.13;65.02;100042.47;1087537;54;19986;-80
2023/03/02 03:42:32;;;;;;;;;;;;;;;1.11;65.27;100042.53;1090123;46;19949;-80
2023/03/02 03:43:33;;;;;;;;;;;;;;;1.11;65.36;100045.16;1087873;46;19942;-81
2023/03/02 03:44:39;;;;;;;;;;;;;;;1.11;65.11;100049.59;1087419;54;19942;-81
2023/03/02 03:45:41;;;;;;;;;;;;;;;1.11;65.34;100047.78;1087399;54;19939;-81
2023/03/02 03:46:45;;;;;;;;;;;;;;;1.07;65.37;100049.75;1087346;54;19948;-81
2023/03/02 03:47:46;;;;;;;;;;;;;;;1.11;65.29;100039.91;1087489;54;19946;-80
2023/03/02 03:48:51;;;;;;;;;;;;;;;1.09;65.25;100045.25;1087376;54;19927;-80
2023/03/02 03:49:52;;;;;;;;;;;;;;;1.17;65.05;100044.84;1087493;54;19969;-82
2023/03/02 03:50:56;;;;;;;;;;;;;;;1.17;65.12;100044.84;1088804;46;19942;-83
2023/03/02 03:52:01;;;;;;;;;;;;;;;1.13;65.17;100048.56;1087495;54;19942;-82
2023/03/02 03:53:03;;;;;;;;;;;;;;;1.05;65.34;100046.34;1087640;47;19950;-80
2023/03/02 03:54:08;;;;;;;;;;;;;;;1.07;65.36;100052.38;1087491;54;20018;-81
2023/03/02 03:55:11;;;;;;;;;;;;;;;1.08;65.63;100045.34;1087423;54;19943;-80
2023/03/02 03:56:15;;;;;;;;;;;;;;;1.13;65.36;100042.47;1087539;54;19942;-80
2023/03/02 03:57:16;;;;;;;;;;;;;;;1.14;65.47;100046.78;1087515;54;20010;-80
2023/03/02 03:58:20;;;;;;;;;;;;;;;1.11;65.27;100044.31;1090137;39;20649;-80
2023/03/02 03:59:23;;;;;;;;;;;;;;;1.14;65.16;100050.28;1087553;54;19947;-82
2023/03/02 04:00:29;;;;;;;;;;;;;;;1.15;65.22;100049.34;1087553;54;19949;-81
2023/03/02 04:01:33;;;;;;;;;;;;;;;1.16;65.27;100040.50;1087581;54;19943;-82
2023/03/02 04:02:38;;;;;;;;;;;;;;;1.11;65.28;100042.53;1087568;54;19943;-81
2023/03/02 04:03:40;;;;;;;;;;;;;;;1.12;65.42;100038.97;1087307;54;20641;-80
2023/03/02 04:04:44;;;;;;;;;;;;;;;1.13;65.18;100045.09;1087334;54;19942;-82
2023/03/02 04:05:45;;;;;;;;;;;;;;;1.13;65.32;100042.47;1087089;54;19991;-80
2023/03/02 04:06:50;;;;;;;;;;;;;;;1.14;65.20;100041.50;1086895;54;19942;-80
2023/03/02 04:07:51;;;;;;;;;;;;;;;1.19;65.12;100035.06;1087294;54;19948;-81
2023/03/02 04:08:55;;;;;;;;;;;;;;;1.20;65.23;100043.81;1087062;47;21168;-81
2023/03/02 04:10:02;;;;;;;;;;;;;;;1.25;64.87;100044.41;1087569;54;19942;-81
2023/03/02 04:11:06;;;;;;;;;;;;;;;1.29;64.92;100048.56;1087496;54;19957;-82
2023/03/02 04:12:08;;;;;;;;;;;;;;;1.27;64.88;100046.97;1087418;54;20645;-81
2023/03/02 04:13:12;;;;;;;;;;;;;;;1.28;64.69;100049.50;1087413;54;20078;-80
2023/03/02 04:14:14;;;;;;;;;;;;;;;1.28;64.79;100046.00;1087432;54;19942;-81
2023/03/02 04:15:16;;;;;;;;;;;;;;;1.29;64.73;100043.31;1087400;54;20042;-80
2023/03/02 04:16:22;;;;;;;;;;;;;;;1.30;64.99;100052.91;1087453;54;19981;-81
2023/03/02 04:17:23;;;;;;;;;;;;;;;1.33;65.01;100046.63;1087422;54;19950;-81
2023/03/02 04:18:27;;;;;;;;;;;;;;;1.31;64.88;100046.72;1087446;54;19954;-82
2023/03/02 04:19:29;;;;;;;;;;;;;;;1.30;64.88;100050.28;1087321;54;19945;-82
2023/03/02 04:20:33;;;;;;;;;;;;;;;1.36;64.62;100042.03;1087347;54;19962;-81
2023/03/02 04:21:35;;;;;;;;;;;;;;;1.31;64.60;100041.44;1087442;54;19951;-81
2023/03/02 04:22:39;;;;;;;;;;;;;;;1.36;64.64;100049.09;1087421;54;19949;-81
2023/03/02 04:23:40;;;;;;;;;;;;;;;1.30;64.62;100045.00;1087285;54;20504;-81
2023/03/02 04:24:44;;;;;;;;;;;;;;;1.30;64.89;100050.28;1087455;54;20017;-82
2023/03/02 04:25:45;;;;;;;;;;;;;;;1.33;64.79;100047.44;1087386;54;20323;-81
2023/03/02 04:26:50;;;;;;;;;;;;;;;1.39;64.49;100048.91;1087451;54;19938;-81
2023/03/02 04:27:52;;;;;;;;;;;;;;;1.30;64.90;100044.16;1087314;54;19943;-82
2023/03/02 04:28:56;;;;;;;;;;;;;;;1.28;64.80;100051.28;1087396;54;19943;-82
2023/03/02 04:29:57;;;;;;;;;;;;;;;1.24;64.87;100047.97;1087686;54;20002;-81
2023/03/02 04:31:02;;;;;;;;;;;;;;;1.28;64.96;100052.16;1087616;54;19943;-82
2023/03/02 04:32:06;;;;;;;;;;;;;;;1.28;65.11;100054.78;1087694;54;19943;-81
2023/03/02 04:33:10;;;;;;;;;;;;;;;1.32;64.90;100055.44;1087603;54;19946;-81
2023/03/02 04:34:11;;;;;;;;;;;;;;;1.35;64.85;100050.84;1087591;54;20574;-82
2023/03/02 04:35:15;;;;;;;;;;;;;;;1.40;64.68;100053.22;1087832;47;19942;-81
2023/03/02 04:36:18;;;;;;;;;;;;;;;1.34;64.74;100054.44;1087528;54;19943;-82
2023/03/02 04:37:22;;;;;;;;;;;;;;;1.33;64.66;100055.34;1087594;54;20006;-81
2023/03/02 04:38:23;;;;;;;;;;;;;;;1.36;64.52;100049.09;1087711;54;19973;-81
2023/03/02 04:39:27;;;;;;;;;;;;;;;1.35;64.62;100050.84;1088237;39;20198;-82
2023/03/02 04:40:29;;;;;;;;;;;;;;;1.28;64.65;100051.28;1087565;54;19943;-82
2023/03/02 04:41:33;;;;;;;;;;;;;;;1.30;64.73;100047.66;1087669;54;20574;-82
2023/03/02 04:42:34;;;;;;;;;;;;;;;1.29;64.84;100039.81;1087620;54;19950;-81
2023/03/02 04:43:40;;;;;;;;;;;;;;;1.30;64.81;100046.78;1087470;54;19954;-82
2023/03/02 04:44:41;;;;;;;;;;;;;;;1.27;64.71;100039.91;1087665;54;19962;-81
2023/03/02 04:45:45;;;;;;;;;;;;;;;1.27;64.75;100045.16;1087339;54;19950;-82
2023/03/02 04:46:47;;;;;;;;;;;;;;;1.26;64.74;100047.91;1087718;54;19960;-82
2023/03/02 04:47:53;;;;;;;;;;;;;;;1.23;65.04;100048.91;1088070;54;19943;-81
2023/03/02 04:48:55;;;;;;;;;;;;;;;1.27;64.78;100049.59;1087931;54;19950;-81
2023/03/02 04:49:59;;;;;;;;;;;;;;;1.28;64.89;100051.28;1087656;54;20321;-81
2023/03/02 04:51:01;;;;;;;;;;;;;;;1.27;64.90;100045.16;1087627;54;19946;-83
2023/03/02 04:52:06;;;;;;;;;;;;;;;1.29;64.94;100037.19;1087813;54;19950;-82
2023/03/02 04:53:10;;;;;;;;;;;;;;;1.31;64.56;100041.44;1087701;54;20072;-81
2023/03/02 04:54:13;;;;;;;;;;;;;;;1.39;64.53;100043.63;1087652;54;19939;-82
2023/03/02 04:55:20;;;;;;;;;;;;;;;1.37;64.35;100037.63;1087764;54;19979;-82
2023/03/02 04:56:21;;;;;;;;;;;;;;;1.42;64.42;100037.38;1087914;54;19962;-81
2023/03/02 04:57:25;;;;;;;;;;;;;;;1.39;64.22;100038.34;1088357;46;20586;-81
2023/03/02 04:58:29;;;;;;;;;;;;;;;1.34;64.55;100038.63;1087798;54;19943;-81
2023/03/02 04:59:31;;;;;;;;;;;;;;;1.30;64.72;100046.78;1087691;54;19942;-81
2023/03/02 05:00:35;;;;;;;;;;;;;;;1.33;64.70;100043.97;1087743;54;19943;-81
2023/03/02 05:01:37;;;;;;;;;;;;;;;1.33;64.67;100044.81;1087743;54;19949;-81
2023/03/02 05:02:41;;;;;;;;;;;;;;;1.30;64.61;100039.75;1087627;54;19949;-80
2023/03/02 05:03:45;;;;;;;;;;;;;;;1.31;64.66;100037.94;1087719;54;19958;-81
2023/03/02 05:04:49;;;;;;;;;;;;;;;1.28;64.73;100040.75;1088289;46;19942;-81
2023/03/02 05:05:51;;;;;;;;;;;;;;;1.24;64.97;100045.34;1087819;54;19950;-81
2023/03/02 05:06:55;;;;;;;;;;;;;;;1.31;65.00;100046.72;1087682;54;19943;-80
2023/03/02 05:07:57;;;;;;;;;;;;;;;1.38;64.67;100047.19;1087410;54;19943;-80
2023/03/02 05:09:01;;;;;;;;;;;;;;;1.40;64.30;100050.59;1087304;54;19950;-80
2023/03/02 05:10:03;;;;;;;;;;;;;;;1.28;64.67;100052.16;1087626;54;19956;-80
2023/03/02 05:11:07;;;;;;;;;;;;;;;1.28;64.77;100041.59;1087775;54;20002;-80
2023/03/02 05:12:09;;;;;;;;;;;;;;;1.23;65.19;100044.50;1087744;54;20460;-81
2023/03/02 05:13:13;;;;;;;;;;;;;;;1.20;65.01;100043.81;1087744;54;19942;-80
2023/03/02 05:14:14;;;;;;;;;;;;;;;1.20;65.13;100042.03;1087525;47;19961;-80
2023/03/02 05:15:18;;;;;;;;;;;;;;;1.15;65.12;100045.84;1087625;54;19946;-82
2023/03/02 05:16:20;;;;;;;;;;;;;;;1.17;65.24;100039.59;1087852;54;19943;-81
2023/03/02 05:17:24;;;;;;;;;;;;;;;1.14;65.26;100044.13;1088277;54;20542;-81
2023/03/02 05:18:25;;;;;;;;;;;;;;;1.18;65.17;100040.41;1088142;54;20678;-80
2023/03/02 05:19:32;;;;;;;;;;;;;;;1.17;65.38;100041.34;1087974;54;19950;-83
2023/03/02 05:20:34;;;;;;;;;;;;;;;1.14;65.28;100038.88;1087802;54;19942;-81
2023/03/02 05:21:39;;;;;;;;;;;;;;;1.09;65.38;100037.34;1087781;54;19926;-81
2023/03/02 05:22:40;;;;;;;;;;;;;;;1.13;65.56;100039.84;1089277;39;20623;-80
2023/03/02 05:23:45;;;;;;;;;;;;;;;1.14;65.35;100034.47;1087697;54;20405;-81
2023/03/02 05:24:46;;;;;;;;;;;;;;;1.16;65.39;100039.63;1087929;54;19950;-82
2023/03/02 05:25:50;;;;;;;;;;;;;;;1.20;65.26;100039.38;1087676;54;19943;-81
2023/03/02 05:26:52;;;;;;;;;;;;;;;1.23;65.09;100031.31;1087815;54;19939;-80
2023/03/02 05:27:56;;;;;;;;;;;;;;;1.19;65.17;100039.47;1087814;54;19946;-81
2023/03/02 05:28:58;;;;;;;;;;;;;;;1.15;65.40;100041.44;1087728;54;19947;-80
2023/03/02 05:30:02;;;;;;;;;;;;;;;1.12;65.63;100036.34;1087821;54;19950;-80
2023/03/02 05:31:03;;;;;;;;;;;;;;;1.13;65.32;100043.31;1087726;54;19998;-81
2023/03/02 05:32:09;;;;;;;;;;;;;;;1.12;65.64;100046.03;1087772;54;19942;-81
2023/03/02 05:33:10;;;;;;;;;;;;;;;1.09;65.54;100047.03;1087595;54;19950;-81
2023/03/02 05:34:16;;;;;;;;;;;;;;;1.08;65.55;100046.19;1087847;54;19943;-82